sensor_id;sensor_type;location;lat;lon;timestamp;pressure;altitude;pressure_sealevel;temperature;humidity
54556;BME280;57291;37.520;15.106;2023-08-20T00:01:37;101024.31;;;26.54;79.55
54556;BME280;57291;37.520;15.106;2023-08-20T00:04:05;101027.88;;;26.51;79.50
54556;BME280;57291;37.520;15.106;2023-08-20T00:06:33;101028.31;;;26.49;79.60
54556;BME280;57291;37.520;15.106;2023-08-20T00:09:00;101018.72;;;26.47;79.87
54556;BME280;57291;37.520;15.106;2023-08-20T00:11:27;101015.94;;;26.50;79.61
54556;BME280;57291;37.520;15.106;2023-08-20T00:13:54;101020.31;;;26.48;79.48
54556;BME280;57291;37.520;15.106;2023-08-20T00:16:22;101022.66;;;26.42;79.52
54556;BME280;57291;37.520;15.106;2023-08-20T00:18:49;101013.91;;;26.40;79.68
54556;BME280;57291;37.520;15.106;2023-08-20T00:21:16;101022.66;;;26.38;79.20
54556;BME280;57291;37.520;15.106;2023-08-20T00:23:44;101015.91;;;26.36;78.46
54556;BME280;57291;37.520;15.106;2023-08-20T00:26:11;101014.72;;;26.33;78.26
54556;BME280;57291;37.520;15.106;2023-08-20T00:28:39;101011.50;;;26.31;78.11
54556;BME280;57291;37.520;15.106;2023-08-20T00:31:07;101017.09;;;26.31;76.38
54556;BME280;57291;37.520;15.106;2023-08-20T00:33:34;101009.53;;;26.28;75.45
54556;BME280;57291;37.520;15.106;2023-08-20T00:36:02;101012.31;;;26.25;74.55
54556;BME280;57291;37.520;15.106;2023-08-20T00:38:29;101012.28;;;26.21;74.14
54556;BME280;57291;37.520;15.106;2023-08-20T00:40:57;101009.50;;;26.21;73.82
54556;BME280;57291;37.520;15.106;2023-08-20T00:43:24;101011.50;;;26.20;72.14
54556;BME280;57291;37.520;15.106;2023-08-20T00:45:51;101009.94;;;26.23;70.73
54556;BME280;57291;37.520;15.106;2023-08-20T00:48:19;101007.94;;;26.27;68.79
54556;BME280;57291;37.520;15.106;2023-08-20T00:50:46;101006.72;;;26.28;68.08
54556;BME280;57291;37.520;15.106;2023-08-20T00:53:14;101008.34;;;26.29;67.40
54556;BME280;57291;37.520;15.106;2023-08-20T00:55:45;101010.72;;;26.31;67.29
54556;BME280;57291;37.520;15.106;2023-08-20T00:58:12;101009.53;;;26.28;67.56
54556;BME280;57291;37.520;15.106;2023-08-20T01:00:39;101012.31;;;26.28;67.84
54556;BME280;57291;37.520;15.106;2023-08-20T01:03:07;101002.78;;;26.29;68.08
54556;BME280;57291;37.520;15.106;2023-08-20T01:05:39;101013.09;;;26.29;68.35
54556;BME280;57291;37.520;15.106;2023-08-20T01:11:21;101005.16;;;26.27;68.35
54556;BME280;57291;37.520;15.106;2023-08-20T01:13:54;101011.91;;;26.26;68.03
54556;BME280;57291;37.520;15.106;2023-08-20T01:16:21;101005.94;;;26.24;67.82
54556;BME280;57291;37.520;15.106;2023-08-20T01:18:48;100999.16;;;26.22;67.81
54556;BME280;57291;37.520;15.106;2023-08-20T01:21:37;101007.13;;;26.23;67.19
54556;BME280;57291;37.520;15.106;2023-08-20T01:29:37;100997.16;;;26.15;66.77
54556;BME280;57291;37.520;15.106;2023-08-20T01:32:07;101002.72;;;26.15;65.30
54556;BME280;57291;37.520;15.106;2023-08-20T01:34:36;100989.22;;;26.13;64.83
54556;BME280;57291;37.520;15.106;2023-08-20T01:37:03;100994.00;;;26.13;64.46
54556;BME280;57291;37.520;15.106;2023-08-20T01:39:30;100984.84;;;26.16;63.64
54556;BME280;57291;37.520;15.106;2023-08-20T01:41:58;100990.00;;;26.17;63.19
54556;BME280;57291;37.520;15.106;2023-08-20T01:44:25;100987.22;;;26.17;63.26
54556;BME280;57291;37.520;15.106;2023-08-20T01:46:53;100989.59;;;26.15;63.29
54556;BME280;57291;37.520;15.106;2023-08-20T01:49:20;100986.81;;;26.12;63.01
54556;BME280;57291;37.520;15.106;2023-08-20T01:51:47;100980.06;;;26.13;62.49
54556;BME280;57291;37.520;15.106;2023-08-20T01:54:14;100986.81;;;26.15;61.46
54556;BME280;57291;37.520;15.106;2023-08-20T01:56:41;100984.84;;;26.16;60.77
54556;BME280;57291;37.520;15.106;2023-08-20T01:59:09;100976.09;;;26.14;60.85
54556;BME280;57291;37.520;15.106;2023-08-20T02:01:36;100981.66;;;26.14;60.64
54556;BME280;57291;37.520;15.106;2023-08-20T02:04:03;100983.22;;;26.11;60.28
54556;BME280;57291;37.520;15.106;2023-08-20T02:06:30;100981.22;;;26.05;60.65
54556;BME280;57291;37.520;15.106;2023-08-20T02:08:58;100988.38;;;25.99;60.76
54556;BME280;57291;37.520;15.106;2023-08-20T02:11:25;100992.75;;;25.96;61.17
54556;BME280;57291;37.520;15.106;2023-08-20T02:13:52;100988.38;;;25.95;61.53
54556;BME280;57291;37.520;15.106;2023-08-20T02:16:19;100990.38;;;25.98;61.58
54556;BME280;57291;37.520;15.106;2023-08-20T02:18:46;100987.22;;;26.03;62.00
54556;BME280;57291;37.520;15.106;2023-08-20T02:21:14;100992.78;;;26.03;61.44
54556;BME280;57291;37.520;15.106;2023-08-20T02:23:41;100986.38;;;26.03;61.88
54556;BME280;57291;37.520;15.106;2023-08-20T02:26:08;100990.78;;;26.00;62.30
54556;BME280;57291;37.520;15.106;2023-08-20T02:28:35;100993.56;;;25.96;61.97
54556;BME280;57291;37.520;15.106;2023-08-20T02:31:05;100995.53;;;25.92;62.18
54556;BME280;57291;37.520;15.106;2023-08-20T02:33:32;100978.81;;;25.85;62.74
54556;BME280;57291;37.520;15.106;2023-08-20T02:36:04;100989.16;;;25.88;64.01
54556;BME280;57291;37.520;15.106;2023-08-20T02:38:32;100986.78;;;25.87;64.86
54556;BME280;57291;37.520;15.106;2023-08-20T02:40:59;100988.34;;;25.84;65.61
54556;BME280;57291;37.520;15.106;2023-08-20T02:43:29;100989.94;;;25.89;67.02
54556;BME280;57291;37.520;15.106;2023-08-20T02:45:56;100983.59;;;25.88;67.09
54556;BME280;57291;37.520;15.106;2023-08-20T02:48:23;100974.03;;;25.86;66.53
54556;BME280;57291;37.520;15.106;2023-08-20T02:50:54;100989.13;;;25.81;66.44
54556;BME280;57291;37.520;15.106;2023-08-20T02:53:22;100981.13;;;25.72;66.16
54556;BME280;57291;37.520;15.106;2023-08-20T02:55:49;100989.88;;;25.71;66.96
54556;BME280;57291;37.520;15.106;2023-08-20T02:58:16;100993.84;;;25.70;68.15
54556;BME280;57291;37.520;15.106;2023-08-20T03:00:43;100987.88;;;25.75;70.11
54556;BME280;57291;37.520;15.106;2023-08-20T03:03:12;100995.06;;;25.80;72.78
54556;BME280;57291;37.520;15.106;2023-08-20T03:05:41;100985.13;;;25.79;75.74
54556;BME280;57291;37.520;15.106;2023-08-20T03:08:08;100992.25;;;25.76;75.66
54556;BME280;57291;37.520;15.106;2023-08-20T03:10:36;100985.50;;;25.70;77.03
54556;BME280;57291;37.520;15.106;2023-08-20T03:13:04;100986.28;;;25.63;78.26
54556;BME280;57291;37.520;15.106;2023-08-20T03:15:31;100988.63;;;25.58;78.81
54556;BME280;57291;37.520;15.106;2023-08-20T03:17:58;100985.00;;;25.50;79.59
54556;BME280;57291;37.520;15.106;2023-08-20T03:20:25;100988.97;;;25.45;79.88
54556;BME280;57291;37.520;15.106;2023-08-20T03:22:55;100986.59;;;25.47;78.91
54556;BME280;57291;37.520;15.106;2023-08-20T03:25:22;100982.59;;;25.41;79.29
54556;BME280;57291;37.520;15.106;2023-08-20T03:27:51;100981.38;;;25.35;78.88
54556;BME280;57291;37.520;15.106;2023-08-20T03:30:19;100975.78;;;25.28;78.45
54556;BME280;57291;37.520;15.106;2023-08-20T03:32:46;100988.06;;;25.27;77.09
54556;BME280;57291;37.520;15.106;2023-08-20T03:35:13;100982.91;;;25.25;77.02
54556;BME280;57291;37.520;15.106;2023-08-20T03:37:41;100980.53;;;25.24;76.46
54556;BME280;57291;37.520;15.106;2023-08-20T03:40:10;100987.25;;;25.23;76.17
54556;BME280;57291;37.520;15.106;2023-08-20T03:42:37;100986.09;;;25.24;75.73
54556;BME280;57291;37.520;15.106;2023-08-20T03:45:04;100982.91;;;25.25;75.63
54556;BME280;57291;37.520;15.106;2023-08-20T03:47:32;100972.19;;;25.24;74.59
54556;BME280;57291;37.520;15.106;2023-08-20T03:50:00;100978.56;;;25.28;74.30
54556;BME280;57291;37.520;15.106;2023-08-20T03:52:27;100980.94;;;25.33;71.48
54556;BME280;57291;37.520;15.106;2023-08-20T03:54:55;100980.19;;;25.43;70.82
54556;BME280;57291;37.520;15.106;2023-08-20T03:57:22;100977.84;;;25.45;71.06
54556;BME280;57291;37.520;15.106;2023-08-20T03:59:50;100979.81;;;25.45;71.09
54556;BME280;57291;37.520;15.106;2023-08-20T04:02:17;100981.41;;;25.46;70.61
54556;BME280;57291;37.520;15.106;2023-08-20T04:04:44;100978.63;;;25.46;69.77
54556;BME280;57291;37.520;15.106;2023-08-20T04:07:12;100981.84;;;25.48;69.26
54556;BME280;57291;37.520;15.106;2023-08-20T04:09:39;100976.63;;;25.46;68.32
54556;BME280;57291;37.520;15.106;2023-08-20T04:12:07;100979.44;;;25.46;67.80
54556;BME280;57291;37.520;15.106;2023-08-20T04:14:36;100978.66;;;25.49;66.60
54556;BME280;57291;37.520;15.106;2023-08-20T04:17:03;100978.66;;;25.49;66.56
54556;BME280;57291;37.520;15.106;2023-08-20T04:19:31;100977.47;;;25.50;65.99
54556;BME280;57291;37.520;15.106;2023-08-20T04:21:58;100974.69;;;25.50;65.67
54556;BME280;57291;37.520;15.106;2023-08-20T04:24:26;100973.88;;;25.50;65.86
54556;BME280;57291;37.520;15.106;2023-08-20T04:26:53;100979.44;;;25.50;65.74
54556;BME280;57291;37.520;15.106;2023-08-20T04:29:25;100975.50;;;25.51;65.59
54556;BME280;57291;37.520;15.106;2023-08-20T04:31:52;100976.69;;;25.54;64.89
54556;BME280;57291;37.520;15.106;2023-08-20T04:34:20;100967.94;;;25.55;64.65
54556;BME280;57291;37.520;15.106;2023-08-20T04:36:50;100982.66;;;25.59;64.98
54556;BME280;57291;37.520;15.106;2023-08-20T04:39:19;100980.31;;;25.65;64.88
54556;BME280;57291;37.520;15.106;2023-08-20T04:41:49;100981.53;;;25.71;64.56
54556;BME280;57291;37.520;15.106;2023-08-20T04:44:18;100975.97;;;25.78;65.01
54556;BME280;57291;37.520;15.106;2023-08-20T04:46:46;100976.44;;;25.87;64.46
54556;BME280;57291;37.520;15.106;2023-08-20T04:49:13;100980.44;;;26.01;63.90
54556;BME280;57291;37.520;15.106;2023-08-20T04:51:40;100974.50;;;26.13;63.66
54556;BME280;57291;37.520;15.106;2023-08-20T04:54:08;100983.66;;;26.31;63.52
54556;BME280;57291;37.520;15.106;2023-08-20T04:56:35;100982.09;;;26.70;62.81
54556;BME280;57291;37.520;15.106;2023-08-20T04:59:02;100976.47;;;27.09;61.73
54556;BME280;57291;37.520;15.106;2023-08-20T05:01:52;100981.16;;;27.37;60.02
54556;BME280;57291;37.520;15.106;2023-08-20T05:04:34;100985.88;;;27.62;59.17
54556;BME280;57291;37.520;15.106;2023-08-20T05:07:01;100986.63;;;27.69;58.55
54556;BME280;57291;37.520;15.106;2023-08-20T05:09:30;100989.00;;;27.81;58.32
54556;BME280;57291;37.520;15.106;2023-08-20T05:11:57;100991.63;;;28.10;56.36
54556;BME280;57291;37.520;15.106;2023-08-20T05:14:24;100990.38;;;28.70;54.59
54556;BME280;57291;37.520;15.106;2023-08-20T05:16:52;100990.84;;;29.75;53.57
54556;BME280;57291;37.520;15.106;2023-08-20T05:19:19;100996.03;;;30.81;51.22
54556;BME280;57291;37.520;15.106;2023-08-20T05:21:46;100996.31;;;31.70;48.90
54556;BME280;57291;37.520;15.106;2023-08-20T05:24:15;100992.84;;;32.35;46.78
54556;BME280;57291;37.520;15.106;2023-08-20T05:26:42;100999.34;;;32.98;43.60
54556;BME280;57291;37.520;15.106;2023-08-20T05:29:09;101006.06;;;33.58;45.18
54556;BME280;57291;37.520;15.106;2023-08-20T05:31:37;101007.66;;;33.72;49.00
54556;BME280;57291;37.520;15.106;2023-08-20T05:34:05;101005.53;;;33.89;47.96
54556;BME280;57291;37.520;15.106;2023-08-20T05:36:32;101010.00;;;34.03;48.81
54556;BME280;57291;37.520;15.106;2023-08-20T05:38:59;101012.25;;;34.08;48.11
54556;BME280;57291;37.520;15.106;2023-08-20T05:41:29;101007.59;;;34.40;46.67
54556;BME280;57291;37.520;15.106;2023-08-20T05:43:56;101005.88;;;34.55;45.92
54556;BME280;57291;37.520;15.106;2023-08-20T05:46:24;101013.72;;;34.86;46.01
54556;BME280;57291;37.520;15.106;2023-08-20T05:48:53;101007.19;;;35.11;45.39
54556;BME280;57291;37.520;15.106;2023-08-20T05:51:21;101017.78;;;34.85;44.21
54556;BME280;57291;37.520;15.106;2023-08-20T05:53:48;101018.94;;;34.74;43.56
54556;BME280;57291;37.520;15.106;2023-08-20T05:56:15;101014.41;;;34.77;42.96
54556;BME280;57291;37.520;15.106;2023-08-20T05:58:43;101018.00;;;35.69;41.66
54556;BME280;57291;37.520;15.106;2023-08-20T06:01:10;101021.41;;;35.95;40.11
54556;BME280;57291;37.520;15.106;2023-08-20T06:03:38;101020.19;;;36.36;39.32
54556;BME280;57291;37.520;15.106;2023-08-20T06:06:05;101034.47;;;36.33;38.05
54556;BME280;57291;37.520;15.106;2023-08-20T06:08:35;101030.31;;;36.65;37.87
54556;BME280;57291;37.520;15.106;2023-08-20T06:11:02;101028.66;;;37.04;36.96
54556;BME280;57291;37.520;15.106;2023-08-20T06:13:29;101038.09;;;36.92;37.34
54556;BME280;57291;37.520;15.106;2023-08-20T06:15:56;101035.34;;;36.11;38.35
54556;BME280;57291;37.520;15.106;2023-08-20T06:18:23;101042.31;;;36.88;38.51
54556;BME280;57291;37.520;15.106;2023-08-20T06:20:50;101051.91;;;36.81;38.83
54556;BME280;57291;37.520;15.106;2023-08-20T06:23:18;101040.91;;;35.49;41.57
54556;BME280;57291;37.520;15.106;2023-08-20T06:26:05;101039.34;;;35.48;42.46
54556;BME280;57291;37.520;15.106;2023-08-20T06:28:32;101048.94;;;35.29;43.11
54556;BME280;57291;37.520;15.106;2023-08-20T06:30:59;101040.13;;;34.92;43.44
54556;BME280;57291;37.520;15.106;2023-08-20T06:33:26;101040.44;;;35.07;42.62
54556;BME280;57291;37.520;15.106;2023-08-20T06:35:53;101046.25;;;35.25;42.74
54556;BME280;57291;37.520;15.106;2023-08-20T06:38:21;101041.50;;;35.44;42.61
54556;BME280;57291;37.520;15.106;2023-08-20T06:40:48;101041.78;;;35.15;42.71
54556;BME280;57291;37.520;15.106;2023-08-20T06:43:15;101041.22;;;35.64;42.68
54556;BME280;57291;37.520;15.106;2023-08-20T06:45:42;101042.97;;;35.48;43.75
54556;BME280;57291;37.520;15.106;2023-08-20T06:48:09;101043.22;;;35.19;44.58
54556;BME280;57291;37.520;15.106;2023-08-20T06:50:36;101043.50;;;34.26;46.59
54556;BME280;57291;37.520;15.106;2023-08-20T06:53:04;101037.00;;;34.77;45.98
54556;BME280;57291;37.520;15.106;2023-08-20T06:55:32;101053.06;;;35.15;45.43
54556;BME280;57291;37.520;15.106;2023-08-20T06:57:59;101056.47;;;34.37;46.91
54556;BME280;57291;37.520;15.106;2023-08-20T07:00:26;101048.13;;;34.20;47.61
54556;BME280;57291;37.520;15.106;2023-08-20T07:02:53;101053.41;;;34.18;48.45
54556;BME280;57291;37.520;15.106;2023-08-20T07:05:20;101058.84;;;33.71;49.53
54556;BME280;57291;37.520;15.106;2023-08-20T07:07:48;101056.56;;;34.07;48.83
54556;BME280;57291;37.520;15.106;2023-08-20T07:10:15;101057.16;;;33.60;50.46
54556;BME280;57291;37.520;15.106;2023-08-20T07:12:42;101055.72;;;33.81;49.43
54556;BME280;57291;37.520;15.106;2023-08-20T07:15:09;101053.16;;;34.00;49.89
54556;BME280;57291;37.520;15.106;2023-08-20T07:17:36;101053.53;;;34.27;49.44
54556;BME280;57291;37.520;15.106;2023-08-20T07:20:06;101054.81;;;34.87;47.90
54556;BME280;57291;37.520;15.106;2023-08-20T07:22:33;101060.38;;;34.77;47.33
54556;BME280;57291;37.520;15.106;2023-08-20T07:25:00;101052.59;;;34.82;47.27
54556;BME280;57291;37.520;15.106;2023-08-20T07:27:27;101068.53;;;34.75;47.11
54556;BME280;57291;37.520;15.106;2023-08-20T07:29:54;101057.09;;;34.79;47.00
54556;BME280;57291;37.520;15.106;2023-08-20T07:32:21;101062.38;;;34.90;47.97
54556;BME280;57291;37.520;15.106;2023-08-20T07:34:49;101060.63;;;34.58;48.37
54556;BME280;57291;37.520;15.106;2023-08-20T07:37:16;101058.75;;;33.74;50.13
54556;BME280;57291;37.520;15.106;2023-08-20T07:39:43;101060.91;;;33.96;49.94
54556;BME280;57291;37.520;15.106;2023-08-20T07:42:11;101058.31;;;33.47;51.39
54556;BME280;57291;37.520;15.106;2023-08-20T07:44:38;101058.44;;;33.27;52.23
54556;BME280;57291;37.520;15.106;2023-08-20T07:47:06;101057.88;;;32.86;53.50
54556;BME280;57291;37.520;15.106;2023-08-20T07:49:33;101054.75;;;32.84;54.28
54556;BME280;57291;37.520;15.106;2023-08-20T07:52:00;101056.75;;;33.00;54.41
54556;BME280;57291;37.520;15.106;2023-08-20T07:54:27;101063.31;;;32.93;55.15
54556;BME280;57291;37.520;15.106;2023-08-20T07:56:55;101070.72;;;33.04;55.10
54556;BME280;57291;37.520;15.106;2023-08-20T07:59:22;101059.56;;;33.00;55.19
54556;BME280;57291;37.520;15.106;2023-08-20T08:01:49;101059.13;;;32.69;56.24
54556;BME280;57291;37.520;15.106;2023-08-20T08:04:17;101061.59;;;32.83;56.63
54556;BME280;57291;37.520;15.106;2023-08-20T08:06:44;101055.19;;;32.66;57.31
54556;BME280;57291;37.520;15.106;2023-08-20T08:09:20;101070.03;;;32.51;58.27
54556;BME280;57291;37.520;15.106;2023-08-20T08:11:49;101063.75;;;32.27;59.79
54556;BME280;57291;37.520;15.106;2023-08-20T08:14:16;101064.03;;;32.32;60.29
54556;BME280;57291;37.520;15.106;2023-08-20T08:16:45;101071.66;;;32.32;60.37
54556;BME280;57291;37.520;15.106;2023-08-20T08:19:12;101066.84;;;31.96;59.93
54556;BME280;57291;37.520;15.106;2023-08-20T08:21:41;101071.16;;;32.00;60.38
54556;BME280;57291;37.520;15.106;2023-08-20T08:24:09;101077.34;;;32.12;60.55
54556;BME280;57291;37.520;15.106;2023-08-20T08:26:36;101065.22;;;31.75;61.11
54556;BME280;57291;37.520;15.106;2023-08-20T08:29:04;101064.69;;;31.64;62.45
54556;BME280;57291;37.520;15.106;2023-08-20T08:31:32;101066.47;;;31.74;62.82
54556;BME280;57291;37.520;15.106;2023-08-20T08:34:00;101067.03;;;31.65;63.98
54556;BME280;57291;37.520;15.106;2023-08-20T08:36:28;101077.56;;;31.81;62.29
54556;BME280;57291;37.520;15.106;2023-08-20T08:38:55;101070.44;;;31.76;62.09
54556;BME280;57291;37.520;15.106;2023-08-20T08:41:22;101077.47;;;31.85;60.98
54556;BME280;57291;37.520;15.106;2023-08-20T08:43:53;101074.91;;;31.54;61.32
54556;BME280;57291;37.520;15.106;2023-08-20T08:46:23;101069.44;;;31.67;61.93
54556;BME280;57291;37.520;15.106;2023-08-20T08:48:52;101071.94;;;31.81;62.35
54556;BME280;57291;37.520;15.106;2023-08-20T08:51:19;101065.25;;;31.55;62.16
54556;BME280;57291;37.520;15.106;2023-08-20T08:53:49;101058.00;;;31.14;63.22
54556;BME280;57291;37.520;15.106;2023-08-20T08:56:16;101060.03;;;30.90;63.56
54556;BME280;57291;37.520;15.106;2023-08-20T08:58:43;101070.19;;;30.53;66.02
54556;BME280;57291;37.520;15.106;2023-08-20T09:01:11;101071.38;;;29.98;67.58
54556;BME280;57291;37.520;15.106;2023-08-20T09:03:38;101068.06;;;30.07;67.46
54556;BME280;57291;37.520;15.106;2023-08-20T09:06:09;101057.00;;;29.96;68.54
54556;BME280;57291;37.520;15.106;2023-08-20T09:08:37;101062.50;;;30.03;68.40
54556;BME280;57291;37.520;15.106;2023-08-20T09:11:04;101062.03;;;30.08;68.19
54556;BME280;57291;37.520;15.106;2023-08-20T09:13:39;101058.59;;;30.28;68.51
54556;BME280;57291;37.520;15.106;2023-08-20T09:16:11;101061.00;;;30.53;66.90
54556;BME280;57291;37.520;15.106;2023-08-20T09:18:46;101046.13;;;30.56;66.42
54556;BME280;57291;37.520;15.106;2023-08-20T09:21:13;101059.38;;;30.55;67.38
54556;BME280;57291;37.520;15.106;2023-08-20T09:23:45;101046.56;;;30.54;67.16
54556;BME280;57291;37.520;15.106;2023-08-20T09:26:13;101051.72;;;30.56;66.63
54556;BME280;57291;37.520;15.106;2023-08-20T09:28:42;101052.25;;;30.74;65.07
54556;BME280;57291;37.520;15.106;2023-08-20T09:31:10;101045.53;;;30.68;66.23
54556;BME280;57291;37.520;15.106;2023-08-20T09:33:51;101049.28;;;30.34;67.56
54556;BME280;57291;37.520;15.106;2023-08-20T09:36:19;101051.78;;;30.52;67.36
54556;BME280;57291;37.520;15.106;2023-08-20T09:38:51;101045.75;;;30.81;66.31
54556;BME280;57291;37.520;15.106;2023-08-20T09:41:18;101051.63;;;30.90;66.69
54556;BME280;57291;37.520;15.106;2023-08-20T09:43:48;101050.63;;;30.77;66.94
54556;BME280;57291;37.520;15.106;2023-08-20T09:46:16;101048.28;;;30.21;70.45
54556;BME280;57291;37.520;15.106;2023-08-20T09:48:48;101048.47;;;30.03;71.96
54556;BME280;57291;37.520;15.106;2023-08-20T09:51:24;101056.97;;;30.27;71.19
54556;BME280;57291;37.520;15.106;2023-08-20T09:54:14;101044.59;;;30.51;71.06
54556;BME280;57291;37.520;15.106;2023-08-20T09:56:51;101039.97;;;30.41;71.20
54556;BME280;57291;37.520;15.106;2023-08-20T09:59:21;101044.09;;;30.56;71.79
54556;BME280;57291;37.520;15.106;2023-08-20T10:01:49;101052.38;;;30.67;70.64
54556;BME280;57291;37.520;15.106;2023-08-20T10:04:17;101040.31;;;30.43;71.75
54556;BME280;57291;37.520;15.106;2023-08-20T10:06:46;101033.50;;;30.44;71.79
54556;BME280;57291;37.520;15.106;2023-08-20T10:09:16;101037.00;;;30.75;68.05
54556;BME280;57291;37.520;15.106;2023-08-20T10:11:43;101034.16;;;30.79;68.48
54556;BME280;57291;37.520;15.106;2023-08-20T10:14:11;101038.50;;;30.83;68.41
54556;BME280;57291;37.520;15.106;2023-08-20T10:16:39;101039.88;;;30.95;68.12
54556;BME280;57291;37.520;15.106;2023-08-20T10:19:06;101042.94;;;31.04;67.17
54556;BME280;57291;37.520;15.106;2023-08-20T10:21:35;101049.97;;;31.13;66.05
54556;BME280;57291;37.520;15.106;2023-08-20T10:24:04;101047.78;;;30.80;65.47
54556;BME280;57291;37.520;15.106;2023-08-20T10:26:33;101030.31;;;30.93;68.29
54556;BME280;57291;37.520;15.106;2023-08-20T10:29:36;101045.53;;;31.15;68.29
54556;BME280;57291;37.520;15.106;2023-08-20T10:32:09;101040.06;;;31.28;66.38
54556;BME280;57291;37.520;15.106;2023-08-20T10:34:39;101039.84;;;31.19;65.80
54556;BME280;57291;37.520;15.106;2023-08-20T10:37:12;101035.38;;;31.01;66.81
54556;BME280;57291;37.520;15.106;2023-08-20T10:39:40;101037.84;;;30.72;67.91
54556;BME280;57291;37.520;15.106;2023-08-20T10:47:50;101027.28;;;30.83;63.67
54556;BME280;57291;37.520;15.106;2023-08-20T10:50:18;101026.09;;;31.04;64.69
54556;BME280;57291;37.520;15.106;2023-08-20T10:52:50;101027.91;;;31.15;64.55
54556;BME280;57291;37.520;15.106;2023-08-20T10:55:22;101033.13;;;31.13;64.82
54556;BME280;57291;37.520;15.106;2023-08-20T10:57:57;101019.06;;;30.93;63.91
54556;BME280;57291;37.520;15.106;2023-08-20T11:00:26;101011.47;;;30.93;65.70
54556;BME280;57291;37.520;15.106;2023-08-20T11:02:55;101014.28;;;30.43;67.42
54556;BME280;57291;37.520;15.106;2023-08-20T11:05:22;101016.75;;;30.10;68.33
54556;BME280;57291;37.520;15.106;2023-08-20T11:07:50;101014.75;;;30.10;68.82
54556;BME280;57291;37.520;15.106;2023-08-20T11:10:17;101015.94;;;30.40;68.37
54556;BME280;57291;37.520;15.106;2023-08-20T11:12:48;101013.03;;;30.47;68.94
54556;BME280;57291;37.520;15.106;2023-08-20T11:15:15;101016.16;;;30.26;69.31
54556;BME280;57291;37.520;15.106;2023-08-20T11:17:45;101012.78;;;30.07;69.93
54556;BME280;57291;37.520;15.106;2023-08-20T11:20:17;101002.63;;;30.17;70.39
54556;BME280;57291;37.520;15.106;2023-08-20T11:22:44;101006.78;;;30.36;70.93
54556;BME280;57291;37.520;15.106;2023-08-20T11:25:12;101012.25;;;30.20;69.25
54556;BME280;57291;37.520;15.106;2023-08-20T11:27:43;101005.06;;;30.19;70.18
54556;BME280;57291;37.520;15.106;2023-08-20T11:30:11;101005.00;;;30.22;70.48
54556;BME280;57291;37.520;15.106;2023-08-20T11:32:41;101006.53;;;30.27;70.78
54556;BME280;57291;37.520;15.106;2023-08-20T11:35:10;100999.56;;;30.62;70.44
54556;BME280;57291;37.520;15.106;2023-08-20T11:37:38;101004.63;;;30.94;67.97
54556;BME280;57291;37.520;15.106;2023-08-20T11:40:08;101006.72;;;30.90;68.80
54556;BME280;57291;37.520;15.106;2023-08-20T11:42:35;101016.00;;;30.60;68.87
54556;BME280;57291;37.520;15.106;2023-08-20T11:45:03;101010.38;;;30.36;70.59
54556;BME280;57291;37.520;15.106;2023-08-20T11:47:38;101010.91;;;30.55;70.51
54556;BME280;57291;37.520;15.106;2023-08-20T11:50:06;100994.25;;;30.68;69.65
54556;BME280;57291;37.520;15.106;2023-08-20T11:52:35;100978.81;;;30.56;70.58
54556;BME280;57291;37.520;15.106;2023-08-20T11:55:03;100987.09;;;30.63;70.09
54556;BME280;57291;37.520;15.106;2023-08-20T11:57:31;100990.06;;;30.79;70.36
54556;BME280;57291;37.520;15.106;2023-08-20T12:00:03;100986.22;;;30.93;68.92
54556;BME280;57291;37.520;15.106;2023-08-20T12:02:43;100987.09;;;30.40;71.34
54556;BME280;57291;37.520;15.106;2023-08-20T12:05:10;100984.41;;;30.05;72.07
54556;BME280;57291;37.520;15.106;2023-08-20T12:07:37;100993.06;;;29.57;73.76
54556;BME280;57291;37.520;15.106;2023-08-20T12:10:20;100989.84;;;29.58;73.74
54556;BME280;57291;37.520;15.106;2023-08-20T12:12:49;100977.53;;;29.83;72.11
54556;BME280;57291;37.520;15.106;2023-08-20T12:15:17;100995.69;;;29.71;72.93
54556;BME280;57291;37.520;15.106;2023-08-20T12:18:02;100971.19;;;29.79;73.40
54556;BME280;57291;37.520;15.106;2023-08-20T12:20:34;100962.97;;;29.95;72.00
54556;BME280;57291;37.520;15.106;2023-08-20T12:23:03;100967.91;;;30.38;70.78
54556;BME280;57291;37.520;15.106;2023-08-20T12:25:33;100960.81;;;30.53;69.75
54556;BME280;57291;37.520;15.106;2023-08-20T12:28:04;100956.25;;;30.63;70.51
54556;BME280;57291;37.520;15.106;2023-08-20T12:30:33;100956.09;;;30.74;69.47
54556;BME280;57291;37.520;15.106;2023-08-20T12:33:04;100965.09;;;30.61;68.57
54556;BME280;57291;37.520;15.106;2023-08-20T12:35:34;100964.91;;;30.72;69.31
54556;BME280;57291;37.520;15.106;2023-08-20T12:38:01;100949.25;;;30.51;69.38
54556;BME280;57291;37.520;15.106;2023-08-20T12:40:29;100941.38;;;30.43;69.44
54556;BME280;57291;37.520;15.106;2023-08-20T12:42:56;100928.03;;;30.27;70.65
54556;BME280;57291;37.520;15.106;2023-08-20T12:45:23;100931.03;;;30.40;70.50
54556;BME280;57291;37.520;15.106;2023-08-20T12:47:50;100923.31;;;30.47;70.13
54556;BME280;57291;37.520;15.106;2023-08-20T12:50:18;100924.22;;;30.41;69.91
54556;BME280;57291;37.520;15.106;2023-08-20T12:52:45;100924.84;;;30.01;71.65
54556;BME280;57291;37.520;15.106;2023-08-20T12:55:13;100932.34;;;30.08;72.91
54556;BME280;57291;37.520;15.106;2023-08-20T12:57:53;100920.66;;;30.36;71.10
54556;BME280;57291;37.520;15.106;2023-08-20T13:00:22;100927.66;;;30.72;70.73
54556;BME280;57291;37.520;15.106;2023-08-20T13:02:49;100920.44;;;30.51;70.96